KLGU/LGU METAR and TAF weather

Enter ICAO airport designator
Station Type Date Time Source
KLGU METAR 2020/08/06 00:51 UTC NOAA

KLGU 060051Z AUTO 01004KT 10SM CLR 36/04 A2985 RMK AO2 SLP046 T03610044


Station Type Date Time Source
KLGU Decoded METAR 2020/08/06 00:51 UTC NOAA

LOGAN CACHE AIRPORT, UT, United States (KLGU) 41-47N 111-51W 1355M
Aug 05, 2020 - 08:51 PM EDT / 2020.08.06 0051 UTC
Wind: from the N (010 degrees) at 5 MPH (4 KT):0
Visibility: 10 mile(s):0
Sky conditions: clear
Temperature: 97.0 F (36.1 C)
Dew Point: 39.9 F (4.4 C)
Relative Humidity: 13%
Pressure (altimeter): 29.85 in. Hg (1010 hPa)
ob: KLGU 060051Z AUTO 01004KT 10SM CLR 36/04 A2985 RMK AO2 SLP046 T03610044
cycle: 1

Station Type Date Time Source
KLGU TAF 2020/08/06 02:36 UTC NOAA

TAF
AMD KLGU 060134Z 0602/0624 01006KT P6SM VCTS FEW100CB BKN130
FM060300 VRB05KT P6SM FEW150

Example: see airport list